createdAt,value
2018-11-07T00:01:13.572Z,593.02
2018-11-07T00:03:41.907Z,581.93
2018-11-07T00:06:10.212Z,595.10
2018-11-07T00:08:38.539Z,598.83
2018-11-07T00:11:06.865Z,594.13
2018-11-07T00:13:35.209Z,591.98
2018-11-07T00:16:03.523Z,589.25
2018-11-07T00:18:31.865Z,622.80
2018-11-07T00:21:00.195Z,583.70
2018-11-07T00:23:28.529Z,650.00
2018-11-07T00:25:56.841Z,569.83
2018-11-07T00:28:25.189Z,600.58
2018-11-07T00:30:53.489Z,577.20
2018-11-07T00:33:21.806Z,579.48
2018-11-07T00:35:50.127Z,578.23
2018-11-07T00:38:18.457Z,582.45
2018-11-07T00:40:46.755Z,576.70
2018-11-07T00:43:15.096Z,573.88
2018-11-07T00:45:43.422Z,574.48
2018-11-07T00:48:11.747Z,565.15
2018-11-07T00:50:40.076Z,589.90
2018-11-07T00:53:08.395Z,592.75
2018-11-07T00:55:36.696Z,581.95
2018-11-07T00:58:05.295Z,567.33
2018-11-07T01:00:33.657Z,569.73
2018-11-07T01:03:02.000Z,580.95
2018-11-07T01:05:30.309Z,582.02
2018-11-07T01:07:58.629Z,572.95
2018-11-07T01:10:26.947Z,581.50
2018-11-07T01:12:55.267Z,568.52
2018-11-07T01:15:23.564Z,575.80
2018-11-07T01:17:51.905Z,579.62
2018-11-07T01:20:20.220Z,579.42
2018-11-07T01:22:48.544Z,607.88
2018-11-07T01:25:16.869Z,592.10
2018-11-07T01:27:45.197Z,608.00
2018-11-07T01:30:14.500Z,590.12
2018-11-07T01:32:42.848Z,580.00
2018-11-07T01:35:11.148Z,572.83
2018-11-07T01:37:39.530Z,616.40
2018-11-07T01:40:09.987Z,561.83
2018-11-07T01:42:38.326Z,559.37
2018-11-07T01:45:07.720Z,552.83
2018-11-07T01:47:36.044Z,547.77
2018-11-07T01:50:05.191Z,562.92
2018-11-07T01:52:33.511Z,585.83
2018-11-07T01:55:01.829Z,529.00
2018-11-07T01:57:30.178Z,562.08
2018-11-07T01:59:58.483Z,585.92
2018-11-07T02:02:26.820Z,557.10
2018-11-07T02:04:55.145Z,553.88
2018-11-07T02:07:23.567Z,512.08
2018-11-07T02:09:51.889Z,505.90
2018-11-07T02:12:20.221Z,539.20
2018-11-07T02:14:48.543Z,496.90
2018-11-07T02:17:16.860Z,498.07
2018-11-07T02:19:45.188Z,498.00
2018-11-07T02:22:13.499Z,546.25
2018-11-07T02:24:41.819Z,552.08
2018-11-07T02:27:10.128Z,528.52
2018-11-07T02:29:38.521Z,536.60
2018-11-07T02:32:06.852Z,547.30
2018-11-07T02:34:35.184Z,475.85
2018-11-07T02:37:03.575Z,465.57
2018-11-07T02:39:31.873Z,467.93
2018-11-07T02:42:00.263Z,500.42
2018-11-07T02:44:28.572Z,485.97
2018-11-07T02:46:56.873Z,523.40
2018-11-07T02:49:25.189Z,520.57
2018-11-07T02:51:53.500Z,531.37
2018-11-07T02:54:21.931Z,528.00
2018-11-07T02:56:50.252Z,485.52
2018-11-07T02:59:18.585Z,522.77
2018-11-07T03:01:46.913Z,486.88
2018-11-07T03:04:15.245Z,483.25
2018-11-07T03:06:43.555Z,507.60
2018-11-07T03:09:11.885Z,477.80
2018-11-07T03:11:40.183Z,470.70
2018-11-07T03:14:09.532Z,504.77
2018-11-07T03:16:38.194Z,514.45
2018-11-07T03:19:07.007Z,482.65
2018-11-07T03:21:35.329Z,484.40
2018-11-07T03:24:03.699Z,488.72
2018-11-07T03:26:32.020Z,490.05
2018-11-07T03:29:00.327Z,532.30
2018-11-07T03:31:28.631Z,493.23
2018-11-07T03:33:56.968Z,490.52
2018-11-07T03:36:25.277Z,513.20
2018-11-07T03:38:53.626Z,538.83
2018-11-07T03:41:21.940Z,490.50
2018-11-07T03:43:50.310Z,499.70
2018-11-07T03:46:18.862Z,482.10
2018-11-07T03:48:47.203Z,477.97
2018-11-07T03:51:15.508Z,490.70
2018-11-07T03:53:43.841Z,495.90
2018-11-07T03:56:12.144Z,501.75
2018-11-07T03:58:40.460Z,486.70
2018-11-07T04:01:08.780Z,462.60
2018-11-07T04:03:37.112Z,476.40
2018-11-07T04:06:05.624Z,470.85
2018-11-07T04:08:33.949Z,472.57
2018-11-07T04:11:02.322Z,466.65
2018-11-07T04:13:30.644Z,494.20
2018-11-07T04:15:59.919Z,472.15
2018-11-07T04:18:28.305Z,469.25
2018-11-07T04:20:56.607Z,472.45
2018-11-07T04:23:24.981Z,462.00
2018-11-07T04:25:53.296Z,456.73
2018-11-07T04:28:21.620Z,485.25
2018-11-07T04:30:49.940Z,487.02
2018-11-07T04:33:18.240Z,486.35
2018-11-07T04:35:46.568Z,448.60
2018-11-07T04:38:14.885Z,455.80
2018-11-07T04:40:43.216Z,459.70
2018-11-07T04:43:11.517Z,476.95
2018-11-07T04:45:39.853Z,467.87
2018-11-07T04:48:08.174Z,442.12
2018-11-07T04:50:36.519Z,478.23
2018-11-07T04:53:04.860Z,512.25
2018-11-07T04:55:33.188Z,473.35
2018-11-07T04:58:01.498Z,459.50
2018-11-07T05:00:29.836Z,469.20
2018-11-07T05:02:58.163Z,463.63
2018-11-07T05:05:26.650Z,438.00
2018-11-07T05:07:55.004Z,438.22
2018-11-07T05:10:23.303Z,461.45
2018-11-07T05:12:51.596Z,462.95
2018-11-07T05:15:19.919Z,462.90
2018-11-07T05:17:48.221Z,466.40
2018-11-07T05:20:16.560Z,467.48
2018-11-07T05:22:44.872Z,495.10
2018-11-07T05:25:13.220Z,460.78
2018-11-07T05:27:42.148Z,442.12
2018-11-07T05:30:11.268Z,437.67
2018-11-07T05:32:39.745Z,494.82
2018-11-07T05:35:08.262Z,443.33
2018-11-07T05:37:36.584Z,503.80
2018-11-07T05:40:05.060Z,440.20
2018-11-07T05:42:33.380Z,452.50
2018-11-07T05:45:01.731Z,510.27
2018-11-07T05:47:30.051Z,418.30
2018-11-07T05:49:58.382Z,460.73
2018-11-07T05:52:26.688Z,478.42
2018-11-07T05:54:55.020Z,425.80
2018-11-07T05:57:23.329Z,454.55
2018-11-07T05:59:51.668Z,437.25
2018-11-07T06:02:19.972Z,428.62
2018-11-07T06:04:48.313Z,465.62
2018-11-07T06:07:16.627Z,471.15
2018-11-07T06:09:45.032Z,493.25
2018-11-07T06:12:13.332Z,445.48
2018-11-07T06:14:41.649Z,444.43
2018-11-07T06:17:09.951Z,443.67
2018-11-07T06:19:38.280Z,488.57
2018-11-07T06:22:06.613Z,471.60
2018-11-07T06:24:34.990Z,419.90
2018-11-07T06:27:03.433Z,453.23
2018-11-07T06:29:31.796Z,448.23
2018-11-07T06:32:00.180Z,468.90
2018-11-07T06:34:28.540Z,457.57
2018-11-07T06:36:56.958Z,446.60
2018-11-07T06:39:25.268Z,485.30
2018-11-07T06:41:53.620Z,446.35
2018-11-07T06:44:22.001Z,454.62
2018-11-07T06:46:50.390Z,458.27
2018-11-07T06:49:18.699Z,461.65
2018-11-07T06:51:47.029Z,444.80
2018-11-07T06:54:15.332Z,457.08
2018-11-07T06:56:43.660Z,448.80
2018-11-07T06:59:11.974Z,446.07
2018-11-07T07:01:40.300Z,439.70
2018-11-07T07:04:08.626Z,449.40
2018-11-07T07:06:36.949Z,444.93
2018-11-07T07:09:07.302Z,458.70
2018-11-07T07:11:35.776Z,523.75
2018-11-07T07:14:04.121Z,468.45
2018-11-07T07:16:32.446Z,514.58
2018-11-07T07:19:00.882Z,484.20
2018-11-07T07:21:29.241Z,486.85
2018-11-07T07:23:57.609Z,498.30
2018-11-07T07:26:25.993Z,529.08
2018-11-07T07:28:54.305Z,514.25
2018-11-07T07:31:22.645Z,532.15
2018-11-07T07:33:51.019Z,501.52
2018-11-07T07:36:19.304Z,519.13
2018-11-07T07:38:47.624Z,524.00
2018-11-07T07:41:15.936Z,525.12
2018-11-07T07:43:44.285Z,532.52
2018-11-07T07:46:12.652Z,502.82
2018-11-07T07:48:40.982Z,547.30
2018-11-07T07:51:09.327Z,503.32
2018-11-07T07:53:37.659Z,531.47
2018-11-07T07:56:05.988Z,538.00
2018-11-07T07:58:34.308Z,539.65
2018-11-07T08:01:02.640Z,528.88
2018-11-07T08:03:30.964Z,563.72
2018-11-07T08:05:59.287Z,563.67
2018-11-07T08:08:27.592Z,562.67
2018-11-07T08:10:55.943Z,587.15
2018-11-07T08:13:24.256Z,587.90
2018-11-07T08:15:52.591Z,589.17
2018-11-07T08:18:20.916Z,595.35
2018-11-07T08:20:49.237Z,597.70
2018-11-07T08:23:17.557Z,605.33
2018-11-07T08:25:45.905Z,657.98
2018-11-07T08:28:14.217Z,615.73
2018-11-07T08:30:42.589Z,613.97
2018-11-07T08:33:10.905Z,616.73
2018-11-07T08:35:39.236Z,624.95
2018-11-07T08:38:07.544Z,624.88
2018-11-07T08:40:35.876Z,648.05
2018-11-07T08:43:04.244Z,697.67
2018-11-07T08:45:32.599Z,665.95
2018-11-07T08:48:00.968Z,659.07
2018-11-07T08:50:29.289Z,688.37
2018-11-07T08:52:57.605Z,695.90
2018-11-07T08:55:25.893Z,715.12
2018-11-07T08:57:54.269Z,707.20
2018-11-07T09:00:24.147Z,716.35
2018-11-07T09:02:52.640Z,708.40
2018-11-07T09:05:22.467Z,731.05
2018-11-07T09:07:52.116Z,723.05
2018-11-07T09:10:21.898Z,749.17
2018-11-07T09:12:50.264Z,734.75
2018-11-07T09:15:21.099Z,756.92
2018-11-07T09:17:50.343Z,764.50
2018-11-07T09:20:20.168Z,759.37
2018-11-07T09:22:48.904Z,770.70
2018-11-07T09:25:17.749Z,768.87
2018-11-07T09:27:46.884Z,788.75
2018-11-07T09:30:17.810Z,785.05
2018-11-07T09:32:46.405Z,788.00
2018-11-07T09:35:15.106Z,795.67
2018-11-07T09:37:43.891Z,799.92
2018-11-07T09:40:15.329Z,794.73
2018-11-07T09:42:44.544Z,813.08
2018-11-07T09:45:14.750Z,813.60
2018-11-07T09:47:43.965Z,814.32
2018-11-07T09:50:13.299Z,834.73
2018-11-07T09:52:42.320Z,833.40
2018-11-07T09:55:12.741Z,829.40
2018-11-07T09:57:41.637Z,800.60
2018-11-07T10:00:13.796Z,829.67
2018-11-07T10:02:42.775Z,838.85
2018-11-07T10:05:12.150Z,835.00
2018-11-07T10:07:41.333Z,838.05
2018-11-07T10:10:13.579Z,835.37
2018-11-07T10:12:42.611Z,837.97
2018-11-07T10:15:11.424Z,824.20
2018-11-07T10:17:39.763Z,828.50
2018-11-07T10:20:10.656Z,834.45
2018-11-07T10:22:39.008Z,811.65
2018-11-07T10:25:07.778Z,842.20
2018-11-07T10:27:36.453Z,827.30
2018-11-07T10:30:05.470Z,814.85
2018-11-07T10:32:33.565Z,818.07
2018-11-07T10:35:01.942Z,837.05
2018-11-07T10:37:32.465Z,843.07
2018-11-07T10:39:58.733Z,856.15
2018-11-07T10:42:27.032Z,852.17
2018-11-07T10:44:56.993Z,868.15
2018-11-07T10:47:26.563Z,849.85
2018-11-07T10:49:54.937Z,877.60
2018-11-07T10:52:55.745Z,867.10
2018-11-07T10:55:24.052Z,880.45
2018-11-07T10:57:52.391Z,890.98
2018-11-07T11:00:26.122Z,897.05
2018-11-07T11:03:13.873Z,896.33
2018-11-07T11:05:42.230Z,890.38
2018-11-07T11:08:10.754Z,893.17
2018-11-07T11:10:39.437Z,899.40
2018-11-07T11:13:07.832Z,891.53
2018-11-07T11:15:36.176Z,904.27
2018-11-07T11:18:04.700Z,912.55
2018-11-07T11:20:33.014Z,912.77
2018-11-07T11:23:01.369Z,914.30
2018-11-07T11:25:29.681Z,912.27
2018-11-07T11:27:58.091Z,930.12
2018-11-07T11:30:26.417Z,915.40
2018-11-07T11:32:54.771Z,924.40
2018-11-07T11:35:23.120Z,928.50
2018-11-07T11:37:51.489Z,902.50
2018-11-07T11:40:19.808Z,890.60
2018-11-07T11:42:48.151Z,899.00
2018-11-07T11:45:17.204Z,910.10
2018-11-07T11:47:46.016Z,887.35
2018-11-07T11:50:16.964Z,906.10
2018-11-07T11:52:46.305Z,918.82
2018-11-07T11:55:14.652Z,910.60
2018-11-07T11:57:43.513Z,910.10
2018-11-07T12:00:14.263Z,890.90
2018-11-07T12:02:42.677Z,860.97
2018-11-07T12:05:12.224Z,905.48
2018-11-07T12:07:40.964Z,894.10
2018-11-07T12:10:16.331Z,914.05
2018-11-07T12:12:46.552Z,872.60
2018-11-07T12:15:15.600Z,917.95
2018-11-07T12:17:43.964Z,912.63
2018-11-07T12:20:12.631Z,907.02
2018-11-07T12:22:41.137Z,914.52
2018-11-07T12:25:11.045Z,921.55
2018-11-07T12:27:40.841Z,912.92
2018-11-07T12:30:12.675Z,937.23
2018-11-07T12:32:41.471Z,916.17
2018-11-07T12:35:09.836Z,931.12
2018-11-07T12:37:38.196Z,929.40
2018-11-07T12:40:07.397Z,930.75
2018-11-07T12:42:35.877Z,928.63
2018-11-07T12:45:04.392Z,916.55
2018-11-07T12:47:32.715Z,923.85
2018-11-07T12:50:01.169Z,913.08
2018-11-07T12:52:29.388Z,915.62
2018-11-07T12:54:57.729Z,909.22
2018-11-07T12:57:26.380Z,902.40
2018-11-07T12:59:54.449Z,912.23
2018-11-07T13:04:36.378Z,910.58
2018-11-07T13:07:04.761Z,880.93
2018-11-07T13:09:33.149Z,920.57
2018-11-07T13:12:01.464Z,922.95
2018-11-07T13:14:29.821Z,899.75
2018-11-07T13:16:58.669Z,931.27
2018-11-07T13:19:27.008Z,944.70
2018-11-07T13:21:55.567Z,943.87
2018-11-07T13:24:23.905Z,882.17
2018-11-07T13:26:52.276Z,948.35
2018-11-07T13:29:20.631Z,925.50
2018-11-07T13:31:48.960Z,956.83
2018-11-07T13:34:17.307Z,954.37
2018-11-07T13:36:45.670Z,943.82
2018-11-07T13:39:14.407Z,952.97
2018-11-07T13:41:42.685Z,937.90
2018-11-07T13:44:11.159Z,964.85
2018-11-07T13:46:39.517Z,967.05
2018-11-07T13:49:07.869Z,949.50
2018-11-07T13:51:36.345Z,963.72
2018-11-07T13:54:04.717Z,942.20
2018-11-07T13:56:33.037Z,944.73
2018-11-07T13:59:01.370Z,955.72
2018-11-07T14:01:30.157Z,939.98
2018-11-07T14:03:58.644Z,944.77
2018-11-07T14:06:27.039Z,929.35
2018-11-07T14:08:55.380Z,945.92
2018-11-07T14:11:23.684Z,938.95
2018-11-07T14:13:52.012Z,942.07
2018-11-07T14:16:20.354Z,946.30
2018-11-07T14:18:48.717Z,951.35
2018-11-07T14:21:17.042Z,924.30
2018-11-07T14:23:45.567Z,948.10
2018-11-07T14:26:13.891Z,953.37
2018-11-07T14:28:42.332Z,945.63
2018-11-07T14:31:10.625Z,952.92
2018-11-07T14:33:38.980Z,940.85
2018-11-07T14:36:07.311Z,936.05
2018-11-07T14:38:35.704Z,944.35
2018-11-07T14:41:04.020Z,944.73
2018-11-07T14:43:32.355Z,940.67
2018-11-07T14:46:00.697Z,939.45
2018-11-07T14:48:29.048Z,939.32
2018-11-07T14:50:57.359Z,939.67
2018-11-07T14:53:25.741Z,928.55
2018-11-07T14:55:54.076Z,944.97
2018-11-07T14:58:22.465Z,925.62
2018-11-07T15:00:50.772Z,930.93
2018-11-07T15:03:19.117Z,928.48
2018-11-07T15:05:47.476Z,924.40
2018-11-07T15:08:15.966Z,925.25
2018-11-07T15:10:44.314Z,917.65
2018-11-07T15:13:12.793Z,924.65
2018-11-07T15:15:42.122Z,917.13
2018-11-07T15:18:10.435Z,882.13
2018-11-07T15:20:38.803Z,903.37
2018-11-07T15:23:07.219Z,910.35
2018-11-07T15:25:35.559Z,896.37
2018-11-07T15:28:03.892Z,909.92
2018-11-07T15:30:32.289Z,897.52
2018-11-07T15:33:00.607Z,900.28
2018-11-07T15:35:29.036Z,887.77
2018-11-07T15:37:57.357Z,854.50
2018-11-07T15:40:25.816Z,846.80
2018-11-07T15:42:54.243Z,875.38
2018-11-07T15:45:22.601Z,873.47
2018-11-07T15:47:50.916Z,864.20
2018-11-07T15:50:24.570Z,873.38
2018-11-07T15:52:53.011Z,850.85
2018-11-07T15:55:21.355Z,837.67
2018-11-07T15:57:49.671Z,837.53
2018-11-07T16:00:18.888Z,828.95
2018-11-07T16:02:47.205Z,823.55
2018-11-07T16:05:16.376Z,817.55
2018-11-07T16:07:44.788Z,813.72
2018-11-07T16:10:14.254Z,807.50
2018-11-07T16:12:42.972Z,791.17
2018-11-07T16:15:13.289Z,802.97
2018-11-07T16:17:42.024Z,816.27
2018-11-07T16:20:12.676Z,781.08
2018-11-07T16:22:42.027Z,799.55
2018-11-07T16:25:10.480Z,810.07
2018-11-07T16:27:39.196Z,803.65
2018-11-07T16:30:10.130Z,785.50
2018-11-07T16:32:38.804Z,758.23
2018-11-07T16:35:07.345Z,771.90
2018-11-07T16:37:36.146Z,818.52
2018-11-07T16:40:05.545Z,761.95
2018-11-07T16:42:33.931Z,763.72
2018-11-07T16:45:02.277Z,756.85
2018-11-07T16:47:30.633Z,757.15
2018-11-07T16:49:58.965Z,744.05
2018-11-07T16:52:27.296Z,731.02
2018-11-07T16:54:55.627Z,725.75
2018-11-07T16:57:23.945Z,714.37
2018-11-07T16:59:52.256Z,727.67
2018-11-07T17:02:20.611Z,706.60
2018-11-07T17:04:49.111Z,704.77
2018-11-07T17:07:17.428Z,755.40
2018-11-07T17:09:45.755Z,704.02
2018-11-07T17:12:14.145Z,707.90
2018-11-07T17:14:42.478Z,689.50
2018-11-07T17:17:10.796Z,685.52
2018-11-07T17:19:39.401Z,700.90
2018-11-07T17:22:07.771Z,721.65
2018-11-07T17:24:36.220Z,704.92
2018-11-07T17:27:04.461Z,734.85
2018-11-07T17:29:33.588Z,695.33
2018-11-07T17:32:03.302Z,731.27
2018-11-07T17:34:31.564Z,733.53
2018-11-07T17:36:59.905Z,677.45
2018-11-07T17:39:28.229Z,667.27
2018-11-07T17:41:56.553Z,669.02
2018-11-07T17:44:24.891Z,667.25
2018-11-07T17:46:53.232Z,679.80
2018-11-07T17:49:21.549Z,671.48
2018-11-07T17:51:50.037Z,707.42
2018-11-07T17:54:18.359Z,668.80
2018-11-07T17:56:46.694Z,649.50
2018-11-07T17:59:15.036Z,627.37
2018-11-07T18:01:43.377Z,638.98
2018-11-07T18:04:12.222Z,642.45
2018-11-07T18:06:40.567Z,633.23
2018-11-07T18:09:09.360Z,641.23
2018-11-07T18:11:37.978Z,659.48
2018-11-07T18:14:06.958Z,641.23
2018-11-07T18:16:35.326Z,640.77
2018-11-07T18:19:03.680Z,628.27
2018-11-07T18:21:32.261Z,633.58
2018-11-07T18:24:00.584Z,623.33
2018-11-07T18:26:29.037Z,640.25
2018-11-07T18:28:57.338Z,623.42
2018-11-07T18:31:25.675Z,619.02
2018-11-07T18:33:53.989Z,630.10
2018-11-07T18:36:22.336Z,652.20
2018-11-07T18:38:50.703Z,636.52
2018-11-07T18:41:19.033Z,638.27
2018-11-07T18:43:47.348Z,608.20
2018-11-07T18:46:15.721Z,619.42
2018-11-07T18:48:44.036Z,624.80
2018-11-07T18:51:12.392Z,613.83
2018-11-07T18:53:40.839Z,606.78
2018-11-07T18:56:09.129Z,608.02
2018-11-07T18:58:38.443Z,594.13
2018-11-07T19:01:06.936Z,601.40
2018-11-07T19:03:35.264Z,567.85
2018-11-07T19:06:03.675Z,572.30
2018-11-07T19:08:32.008Z,571.80
2018-11-07T19:11:00.317Z,572.37
2018-11-07T19:13:28.756Z,565.67
2018-11-07T19:15:57.080Z,553.67
2018-11-07T19:18:25.397Z,566.25
2018-11-07T19:23:07.771Z,574.55
2018-11-07T19:25:36.123Z,575.25
2018-11-07T19:28:04.506Z,555.17
2018-11-07T19:30:32.880Z,566.17
2018-11-07T19:33:01.242Z,601.52
2018-11-07T19:35:29.528Z,602.50
2018-11-07T19:37:57.874Z,584.65
2018-11-07T19:40:26.640Z,580.05
2018-11-07T19:42:54.978Z,590.40
2018-11-07T19:45:23.840Z,582.25
2018-11-07T19:47:52.332Z,539.27
2018-11-07T19:50:21.323Z,557.17
2018-11-07T19:52:50.456Z,532.15
2018-11-07T19:55:20.230Z,515.23
2018-11-07T19:57:55.024Z,497.52
2018-11-07T20:00:23.356Z,545.73
2018-11-07T20:02:51.761Z,543.83
2018-11-07T20:05:20.092Z,507.17
2018-11-07T20:07:48.437Z,529.35
2018-11-07T20:10:18.056Z,523.13
2018-11-07T20:12:46.392Z,567.40
2018-11-07T20:15:15.787Z,529.95
2018-11-07T20:17:44.123Z,526.95
2018-11-07T20:20:13.008Z,532.85
2018-11-07T20:22:41.489Z,535.90
2018-11-07T20:25:10.793Z,541.67
2018-11-07T20:27:39.252Z,513.52
2018-11-07T20:30:09.323Z,560.33
2018-11-07T20:32:37.835Z,557.58
2018-11-07T20:35:07.637Z,526.50
2018-11-07T20:37:35.973Z,514.67
2018-11-07T20:40:04.837Z,518.13
2018-11-07T20:42:33.159Z,538.55
2018-11-07T20:45:01.544Z,499.08
2018-11-07T20:47:31.102Z,567.53
2018-11-07T20:49:59.644Z,551.05
2018-11-07T20:52:27.994Z,518.23
2018-11-07T20:54:56.429Z,519.25
2018-11-07T20:57:24.660Z,609.37
2018-11-07T20:59:53.008Z,538.87
2018-11-07T21:02:21.353Z,592.08
2018-11-07T21:04:49.663Z,503.58
2018-11-07T21:07:17.993Z,505.37
2018-11-07T21:09:46.325Z,562.23
2018-11-07T21:12:14.773Z,508.30
2018-11-07T21:14:43.071Z,544.58
2018-11-07T21:17:11.453Z,523.20
2018-11-07T21:19:39.764Z,502.80
2018-11-07T21:22:09.552Z,507.95
2018-11-07T21:24:37.959Z,503.50
2018-11-07T21:27:06.392Z,518.70
2018-11-07T21:29:35.033Z,496.80
2018-11-07T21:32:03.372Z,543.80
2018-11-07T21:34:31.787Z,500.32
2018-11-07T21:37:00.119Z,513.27
2018-11-07T21:39:28.436Z,497.80
2018-11-07T21:41:56.767Z,505.27
2018-11-07T21:44:25.080Z,501.90
2018-11-07T21:46:53.409Z,498.57
2018-11-07T21:49:21.772Z,481.95
2018-11-07T21:51:50.093Z,476.75
2018-11-07T21:54:18.395Z,491.62
2018-11-07T21:56:46.735Z,478.15
2018-11-07T21:59:15.044Z,519.85
2018-11-07T22:01:43.383Z,468.43
2018-11-07T22:04:11.696Z,469.95
2018-11-07T22:06:40.008Z,475.70
2018-11-07T22:09:09.599Z,480.27
2018-11-07T22:11:37.903Z,478.90
2018-11-07T22:14:06.295Z,488.42
2018-11-07T22:16:34.640Z,470.65
2018-11-07T22:19:03.080Z,490.00
2018-11-07T22:21:31.388Z,477.90
2018-11-07T22:23:59.787Z,476.20
2018-11-07T22:26:28.069Z,491.68
2018-11-07T22:28:56.636Z,472.30
2018-11-07T22:31:25.019Z,487.50
2018-11-07T22:33:53.320Z,475.75
2018-11-07T22:36:21.624Z,458.57
2018-11-07T22:38:49.964Z,480.03
2018-11-07T22:41:18.472Z,473.45
2018-11-07T22:43:46.987Z,464.65
2018-11-07T22:46:15.424Z,468.27
2018-11-07T22:48:43.879Z,470.10
2018-11-07T22:51:12.213Z,479.40
2018-11-07T22:53:40.552Z,475.18
2018-11-07T22:56:08.869Z,459.43
2018-11-07T22:58:37.205Z,510.97
2018-11-07T23:01:11.228Z,509.07
2018-11-07T23:03:39.574Z,450.07
2018-11-07T23:06:07.903Z,455.15
2018-11-07T23:08:36.241Z,452.45
2018-11-07T23:11:04.559Z,453.47
2018-11-07T23:13:32.905Z,452.25
2018-11-07T23:16:01.221Z,460.17
2018-11-07T23:18:29.549Z,449.65
2018-11-07T23:20:57.882Z,444.13
2018-11-07T23:23:26.229Z,446.50
2018-11-07T23:25:54.556Z,433.40
2018-11-07T23:28:22.885Z,440.45
2018-11-07T23:30:51.195Z,427.32
2018-11-07T23:33:19.512Z,453.35
2018-11-07T23:35:47.825Z,430.97
2018-11-07T23:38:16.240Z,454.53
2018-11-07T23:40:44.556Z,436.92
2018-11-07T23:43:12.897Z,486.32
2018-11-07T23:45:41.214Z,442.50
2018-11-07T23:48:09.548Z,445.35
2018-11-07T23:50:37.869Z,435.13
2018-11-07T23:53:06.413Z,454.30
2018-11-07T23:55:34.741Z,457.73
2018-11-07T23:58:03.079Z,480.18
